createdAt,value
2023-04-14T00:01:16.952Z,99542.59
2023-04-14T00:03:29.763Z,99539.16
2023-04-14T00:05:42.533Z,99538.68
2023-04-14T00:07:55.321Z,99533.34
2023-04-14T00:10:08.193Z,99537.47
2023-04-14T00:12:20.976Z,99536.06
2023-04-14T00:14:33.860Z,99541.05
2023-04-14T00:16:46.774Z,99537.13
2023-04-14T00:18:59.790Z,99531.52
2023-04-14T00:21:13.286Z,99523.61
2023-04-14T00:23:25.953Z,99518.09
2023-04-14T00:25:38.539Z,99517.32
2023-04-14T00:27:51.364Z,99517.88
2023-04-14T00:30:04.237Z,99514.91
2023-04-14T00:32:16.850Z,99519.55
2023-04-14T00:34:29.576Z,99515.95
2023-04-14T00:36:42.493Z,99514.61
2023-04-14T00:38:55.304Z,99513.23
2023-04-14T00:41:07.846Z,99511.36
2023-04-14T00:43:20.468Z,99513.14
2023-04-14T00:45:42.733Z,99511.38
2023-04-14T00:47:55.812Z,99509.71
2023-04-14T00:50:11.494Z,99511.81
2023-04-14T00:52:25.228Z,99514.37
2023-04-14T00:54:38.565Z,99513.52
2023-04-14T00:56:51.880Z,99509.48
2023-04-14T00:59:06.979Z,99509.27
2023-04-14T01:01:20.830Z,99508.69
2023-04-14T01:03:34.790Z,99508.80
2023-04-14T01:05:47.439Z,99504.75
2023-04-14T01:08:01.053Z,99500.94
2023-04-14T01:10:13.929Z,99502.58
2023-04-14T01:13:04.392Z,99499.17
2023-04-14T01:15:38.989Z,99498.91
2023-04-14T01:18:03.477Z,99497.51
2023-04-14T01:20:34.316Z,99504.16
2023-04-14T01:22:55.579Z,99510.20
2023-04-14T01:25:32.313Z,99512.19
2023-04-14T01:28:12.558Z,99511.52
2023-04-14T01:30:47.354Z,99515.15
2023-04-14T01:33:06.982Z,99511.92
2023-04-14T01:35:23.815Z,99512.07
2023-04-14T01:37:44.043Z,99514.05
2023-04-14T01:40:01.605Z,99523.23
2023-04-14T01:42:17.771Z,99524.09
2023-04-14T01:44:31.622Z,99516.60
2023-04-14T01:46:45.360Z,99507.27
2023-04-14T01:48:58.282Z,99504.39
2023-04-14T01:51:13.781Z,99504.70
2023-04-14T01:53:28.239Z,99508.97
2023-04-14T01:55:42.145Z,99509.50
2023-04-14T01:57:57.489Z,99502.46
2023-04-14T02:00:11.769Z,99496.46
2023-04-14T02:02:26.899Z,99498.56
2023-04-14T02:04:42.482Z,99496.27
2023-04-14T02:06:57.579Z,99500.35
2023-04-14T02:09:12.890Z,99501.16
2023-04-14T02:11:27.562Z,99499.58
2023-04-14T02:13:42.239Z,99495.16
2023-04-14T02:15:57.676Z,99486.04
2023-04-14T02:18:10.648Z,99485.65
2023-04-14T02:20:23.412Z,99488.77
2023-04-14T02:22:36.332Z,99482.13
2023-04-14T02:24:49.058Z,99477.92
2023-04-14T02:27:10.581Z,99477.64
2023-04-14T02:29:25.314Z,99479.19
2023-04-14T02:31:59.654Z,99477.44
2023-04-14T02:34:14.052Z,99480.29
2023-04-14T02:36:43.090Z,99478.63
2023-04-14T02:38:59.772Z,99476.39
2023-04-14T02:41:19.264Z,99471.52
2023-04-14T02:43:35.816Z,99465.88
2023-04-14T02:45:51.478Z,99468.10
2023-04-14T02:48:12.395Z,99475.70
2023-04-14T02:50:27.031Z,99481.73
2023-04-14T02:52:41.025Z,99480.29
2023-04-14T02:54:56.310Z,99481.45
2023-04-14T02:57:09.532Z,99478.13
2023-04-14T02:59:23.023Z,99474.70
2023-04-14T03:01:36.492Z,99475.71
2023-04-14T03:03:50.106Z,99470.68
2023-04-14T03:06:06.144Z,99467.79
2023-04-14T03:08:19.580Z,99470.66
2023-04-14T03:10:32.937Z,99470.50
2023-04-14T03:12:47.862Z,99466.48
2023-04-14T03:15:02.040Z,99464.42
2023-04-14T03:17:15.461Z,99460.76
2023-04-14T03:19:29.498Z,99463.64
2023-04-14T03:21:42.446Z,99466.31
2023-04-14T03:23:56.179Z,99468.59
2023-04-14T03:26:11.692Z,99470.86
2023-04-14T03:28:28.464Z,99468.16
2023-04-14T03:30:46.352Z,99468.65
2023-04-14T03:33:04.087Z,99465.91
2023-04-14T03:35:21.832Z,99464.14
2023-04-14T03:37:37.986Z,99459.05
2023-04-14T03:39:52.890Z,99450.95
2023-04-14T03:42:11.352Z,99450.99
2023-04-14T03:44:26.452Z,99447.42
2023-04-14T03:46:39.080Z,99446.86
2023-04-14T03:48:54.355Z,99451.34
2023-04-14T03:51:09.076Z,99454.42
2023-04-14T03:53:21.966Z,99456.77
2023-04-14T03:55:36.234Z,99453.97
2023-04-14T03:57:49.852Z,99448.48
2023-04-14T04:00:05.241Z,99445.10
2023-04-14T04:02:19.253Z,99446.60
2023-04-14T04:04:32.350Z,99450.20
2023-04-14T04:06:46.085Z,99449.09
2023-04-14T04:09:01.967Z,99449.57
2023-04-14T04:11:18.732Z,99442.48
2023-04-14T04:13:34.196Z,99447.84
2023-04-14T04:15:49.654Z,99445.34
2023-04-14T04:18:03.432Z,99448.08
2023-04-14T04:20:17.939Z,99447.11
2023-04-14T04:22:33.191Z,99451.72
2023-04-14T04:24:47.336Z,99449.73
2023-04-14T04:27:01.347Z,99450.62
2023-04-14T04:29:14.190Z,99444.48
2023-04-14T04:31:32.718Z,99436.95
2023-04-14T04:33:46.617Z,99427.74
2023-04-14T04:36:00.885Z,99423.44
2023-04-14T04:38:13.487Z,99422.13
2023-04-14T04:40:26.200Z,99421.78
2023-04-14T04:42:42.866Z,99426.10
2023-04-14T04:44:56.120Z,99425.91
2023-04-14T04:47:09.448Z,99427.20
2023-04-14T04:49:22.943Z,99426.79
2023-04-14T04:51:35.752Z,99429.45
2023-04-14T04:53:48.280Z,99430.12
2023-04-14T04:56:01.247Z,99431.70
2023-04-14T04:58:13.811Z,99428.98
2023-04-14T05:00:26.668Z,99429.54
2023-04-14T05:02:39.320Z,99432.48
2023-04-14T05:04:52.244Z,99436.19
2023-04-14T05:07:04.894Z,99433.16
2023-04-14T05:09:17.394Z,99428.53
2023-04-14T05:11:30.104Z,99420.70
2023-04-14T05:13:42.645Z,99420.88
2023-04-14T05:16:05.243Z,99418.19
2023-04-14T05:18:18.169Z,99418.81
2023-04-14T05:20:31.219Z,99422.77
2023-04-14T05:22:44.164Z,99420.80
2023-04-14T05:24:56.722Z,99422.70
2023-04-14T05:27:14.130Z,99423.42
2023-04-14T05:29:27.252Z,99424.41
2023-04-14T05:31:39.891Z,99425.63
2023-04-14T05:33:52.457Z,99423.86
2023-04-14T05:36:05.556Z,99423.46
2023-04-14T05:38:19.886Z,99425.22
2023-04-14T05:40:33.335Z,99426.98
2023-04-14T05:42:45.892Z,99424.80
2023-04-14T05:44:58.705Z,99423.16
2023-04-14T05:47:11.225Z,99418.70
2023-04-14T05:49:23.752Z,99417.63
2023-04-14T05:51:36.379Z,99413.16
2023-04-14T05:53:48.961Z,99414.62
2023-04-14T05:56:01.563Z,99415.42
2023-04-14T05:58:14.848Z,99416.95
2023-04-14T06:00:27.837Z,99414.61
2023-04-14T06:02:41.333Z,99411.09
2023-04-14T06:04:54.199Z,99409.60
2023-04-14T06:07:06.746Z,99408.91
2023-04-14T06:09:19.375Z,99409.61
2023-04-14T06:11:32.141Z,99403.48
2023-04-14T06:13:44.735Z,99398.39
2023-04-14T06:15:58.165Z,99398.80
2023-04-14T06:18:10.782Z,99395.68
2023-04-14T06:20:23.536Z,99400.38
2023-04-14T06:22:36.096Z,99395.17
2023-04-14T06:24:48.824Z,99395.61
2023-04-14T06:27:04.020Z,99389.82
2023-04-14T06:29:17.158Z,99385.36
2023-04-14T06:31:29.685Z,99378.36
2023-04-14T06:33:42.246Z,99371.73
2023-04-14T06:35:54.976Z,99364.78
2023-04-14T06:38:07.454Z,99355.65
2023-04-14T06:40:20.062Z,99355.29
2023-04-14T06:42:32.576Z,99352.39
2023-04-14T06:44:45.410Z,99349.77
2023-04-14T06:46:57.939Z,99347.09
2023-04-14T06:49:10.485Z,99348.06
2023-04-14T06:51:22.994Z,99346.55
2023-04-14T06:53:35.686Z,99345.04
2023-04-14T06:55:59.000Z,99343.48
2023-04-14T06:58:11.829Z,99344.75
2023-04-14T07:00:24.505Z,99345.20
2023-04-14T07:02:37.149Z,99341.17
2023-04-14T07:04:49.836Z,99337.95
2023-04-14T07:07:02.364Z,99336.09
2023-04-14T07:09:14.941Z,99334.89
2023-04-14T07:11:27.542Z,99340.66
2023-04-14T07:13:41.406Z,99342.84
2023-04-14T07:15:54.419Z,99348.36
2023-04-14T07:18:07.012Z,99343.72
2023-04-14T07:20:19.550Z,99344.15
2023-04-14T07:22:33.176Z,99341.25
2023-04-14T07:24:45.909Z,99348.40
2023-04-14T07:26:58.454Z,99343.41
2023-04-14T07:29:11.087Z,99338.73
2023-04-14T07:31:23.651Z,99336.16
2023-04-14T07:33:36.563Z,99336.75
2023-04-14T07:36:01.271Z,99339.89
2023-04-14T07:38:15.826Z,99339.58
2023-04-14T07:40:28.350Z,99345.21
2023-04-14T07:42:41.127Z,99346.34
2023-04-14T07:44:53.658Z,99346.10
2023-04-14T07:47:06.432Z,99347.96
2023-04-14T07:49:18.973Z,99347.08
2023-04-14T07:51:31.543Z,99350.52
2023-04-14T07:53:45.128Z,99346.04
2023-04-14T07:55:58.965Z,99342.58
2023-04-14T07:58:15.402Z,99342.34
2023-04-14T08:00:28.220Z,99336.23
2023-04-14T08:02:40.925Z,99332.90
2023-04-14T08:04:53.932Z,99329.70
2023-04-14T08:07:06.743Z,99331.99
2023-04-14T08:09:19.326Z,99334.23
2023-04-14T08:11:31.928Z,99334.99
2023-04-14T08:13:44.680Z,99334.95
2023-04-14T08:15:57.415Z,99333.81
2023-04-14T08:18:09.982Z,99331.80
2023-04-14T08:20:22.885Z,99334.65
2023-04-14T08:22:35.418Z,99332.04
2023-04-14T08:24:48.176Z,99330.79
2023-04-14T08:27:02.223Z,99333.45
2023-04-14T08:29:14.759Z,99331.96
2023-04-14T08:31:27.331Z,99331.61
2023-04-14T08:33:39.877Z,99331.81
2023-04-14T08:36:00.285Z,99330.50
2023-04-14T08:38:13.101Z,99324.75
2023-04-14T08:40:37.403Z,99323.94
2023-04-14T08:42:50.013Z,99330.45
2023-04-14T08:45:02.606Z,99326.58
2023-04-14T08:47:15.638Z,99323.39
2023-04-14T08:49:44.158Z,99320.85
2023-04-14T08:51:58.575Z,99315.10
2023-04-14T08:54:12.471Z,99313.52
2023-04-14T08:56:30.214Z,99310.73
2023-04-14T08:58:42.961Z,99314.98
2023-04-14T09:00:55.695Z,99313.62
2023-04-14T09:03:09.268Z,99314.65
2023-04-14T09:05:22.387Z,99316.18
2023-04-14T09:07:36.381Z,99318.79
2023-04-14T09:09:48.941Z,99317.23
2023-04-14T09:12:03.749Z,99317.04
2023-04-14T09:14:17.969Z,99323.50
2023-04-14T09:16:31.843Z,99329.14
2023-04-14T09:18:47.314Z,99326.64
2023-04-14T09:21:30.313Z,99325.81
2023-04-14T09:23:33.195Z,99321.02
2023-04-14T09:25:45.947Z,99318.74
2023-04-14T09:27:58.549Z,99312.90
2023-04-14T09:30:11.522Z,99311.29
2023-04-14T09:32:24.300Z,99305.52
2023-04-14T09:34:49.227Z,99305.72
2023-04-14T09:37:11.043Z,99303.83
2023-04-14T09:39:23.627Z,99309.13
2023-04-14T09:41:36.180Z,99313.63
2023-04-14T09:43:49.982Z,99319.59
2023-04-14T09:46:08.562Z,99307.46
2023-04-14T09:48:21.693Z,99300.91
2023-04-14T09:51:00.064Z,99294.66
2023-04-14T09:53:12.660Z,99291.02
2023-04-14T09:55:25.145Z,99295.82
2023-04-14T09:57:40.918Z,99296.17
2023-04-14T09:59:53.457Z,99294.31
2023-04-14T10:02:10.028Z,99294.45
2023-04-14T10:04:28.130Z,99291.19
2023-04-14T10:06:40.805Z,99284.89
2023-04-14T10:08:55.120Z,99285.10
2023-04-14T10:11:43.625Z,99280.98
2023-04-14T10:14:07.421Z,99280.58
2023-04-14T10:16:21.092Z,99278.46
2023-04-14T10:18:33.722Z,99282.33
2023-04-14T10:20:47.161Z,99282.05
2023-04-14T10:23:00.612Z,99278.25
2023-04-14T10:25:13.583Z,99281.75
2023-04-14T10:27:27.258Z,99276.68
2023-04-14T10:29:42.030Z,99276.63
2023-04-14T10:32:00.609Z,99275.96
2023-04-14T10:34:15.904Z,99274.67
2023-04-14T10:36:29.263Z,99272.48
2023-04-14T10:38:44.049Z,99270.48
2023-04-14T10:40:57.433Z,99272.61
2023-04-14T10:43:12.395Z,99269.58
2023-04-14T10:45:24.975Z,99272.55
2023-04-14T10:47:40.404Z,99277.33
2023-04-14T10:49:56.910Z,99278.73
2023-04-14T10:52:12.619Z,99271.64
2023-04-14T10:54:25.190Z,99265.83
2023-04-14T10:56:38.263Z,99262.83
2023-04-14T10:58:55.953Z,99254.10
2023-04-14T11:01:22.997Z,99252.14
2023-04-14T11:03:44.895Z,99254.75
2023-04-14T11:05:58.322Z,99256.27
2023-04-14T11:08:16.289Z,99252.82
2023-04-14T11:10:31.960Z,99250.27
2023-04-14T11:12:46.061Z,99251.65
2023-04-14T11:15:05.500Z,99242.27
2023-04-14T11:17:24.666Z,99235.09
2023-04-14T11:19:37.893Z,99233.70
2023-04-14T11:21:53.544Z,99233.79
2023-04-14T11:24:06.642Z,99223.08
2023-04-14T11:26:19.651Z,99230.42
2023-04-14T11:28:34.489Z,99229.86
2023-04-14T11:30:47.067Z,99231.30
2023-04-14T11:32:59.862Z,99226.98
2023-04-14T11:35:12.378Z,99221.88
2023-04-14T11:37:26.838Z,99222.19
2023-04-14T11:39:39.465Z,99216.62
2023-04-14T11:41:52.074Z,99212.61
2023-04-14T11:44:04.702Z,99208.68
2023-04-14T11:46:21.202Z,99208.77
2023-04-14T11:48:33.735Z,99206.45
2023-04-14T11:50:47.884Z,99205.79
2023-04-14T11:53:00.933Z,99206.94
2023-04-14T11:55:14.975Z,99204.81
2023-04-14T11:57:27.644Z,99204.73
2023-04-14T11:59:45.057Z,99196.70
2023-04-14T12:01:58.245Z,99193.73
2023-04-14T12:04:12.373Z,99186.42
2023-04-14T12:06:27.392Z,99185.84
2023-04-14T12:08:39.953Z,99181.81
2023-04-14T12:10:52.577Z,99180.76
2023-04-14T12:13:09.167Z,99179.08
2023-04-14T12:15:22.295Z,99174.33
2023-04-14T12:17:35.471Z,99172.90
2023-04-14T12:19:48.955Z,99170.56
2023-04-14T12:22:02.811Z,99162.84
2023-04-14T12:24:15.837Z,99158.72
2023-04-14T12:26:28.771Z,99151.98
2023-04-14T12:28:41.870Z,99149.79
2023-04-14T12:31:01.456Z,99145.98
2023-04-14T12:33:14.890Z,99149.42
2023-04-14T12:35:34.660Z,99146.73
2023-04-14T12:37:49.851Z,99141.69
2023-04-14T12:40:06.364Z,99139.04
2023-04-14T12:42:19.450Z,99133.57
2023-04-14T12:44:31.991Z,99132.25
2023-04-14T12:46:52.599Z,99129.86
2023-04-14T12:49:05.684Z,99127.27
2023-04-14T12:51:19.499Z,99130.17
2023-04-14T12:53:32.724Z,99132.32
2023-04-14T12:55:45.247Z,99128.88
2023-04-14T12:57:58.775Z,99128.06
2023-04-14T13:00:11.847Z,99126.38
2023-04-14T13:02:24.570Z,99124.23
2023-04-14T13:04:37.184Z,99126.66
2023-04-14T13:06:49.743Z,99118.71
2023-04-14T13:09:02.438Z,99117.90
2023-04-14T13:11:16.621Z,99112.47
2023-04-14T13:13:29.397Z,99109.69
2023-04-14T13:16:13.658Z,99102.76
2023-04-14T13:18:16.755Z,99105.09
2023-04-14T13:20:30.881Z,99103.77
2023-04-14T13:22:43.350Z,99102.45
2023-04-14T13:24:58.320Z,99097.05
2023-04-14T13:27:11.581Z,99095.36
2023-04-14T13:29:24.077Z,99091.86
2023-04-14T13:31:36.660Z,99089.67
2023-04-14T13:33:49.274Z,99086.45
2023-04-14T13:36:03.047Z,99078.34
2023-04-14T13:38:15.803Z,99067.14
2023-04-14T13:40:28.770Z,99069.17
2023-04-14T13:42:41.303Z,99058.62
2023-04-14T13:44:53.797Z,99062.21
2023-04-14T13:47:06.400Z,99056.70
2023-04-14T13:49:18.903Z,99053.54
2023-04-14T13:51:32.308Z,99057.20
2023-04-14T13:53:46.489Z,99057.81
2023-04-14T13:55:59.088Z,99058.33
2023-04-14T13:58:11.595Z,99056.09
2023-04-14T14:00:24.288Z,99054.13
2023-04-14T14:02:40.493Z,99058.15
2023-04-14T14:04:53.148Z,99056.95
2023-04-14T14:07:05.757Z,99054.69
2023-04-14T14:09:18.330Z,99053.91
2023-04-14T14:11:31.263Z,99047.99
2023-04-14T14:13:43.964Z,99044.72
2023-04-14T14:15:56.984Z,99041.45
2023-04-14T14:18:09.692Z,99039.08
2023-04-14T14:20:22.234Z,99042.84
2023-04-14T14:22:34.788Z,99041.51
2023-04-14T14:24:47.532Z,99037.64
2023-04-14T14:27:00.016Z,99033.24
2023-04-14T14:29:12.828Z,99034.42
2023-04-14T14:31:25.452Z,99034.11
2023-04-14T14:33:38.397Z,99030.00
2023-04-14T14:35:50.989Z,99034.52
2023-04-14T14:38:03.601Z,99038.83
2023-04-14T14:40:16.269Z,99040.42
2023-04-14T14:42:28.811Z,99030.31
2023-04-14T14:44:41.459Z,99036.20
2023-04-14T14:46:54.081Z,99036.75
2023-04-14T14:49:06.760Z,99040.05
2023-04-14T14:51:19.282Z,99034.92
2023-04-14T14:53:32.376Z,99031.09
2023-04-14T14:55:44.861Z,99021.95
2023-04-14T14:57:57.369Z,99019.16
2023-04-14T15:00:10.950Z,99026.34
2023-04-14T15:02:23.708Z,99034.73
2023-04-14T15:04:36.524Z,99042.87
2023-04-14T15:06:49.049Z,99051.75
2023-04-14T15:09:01.629Z,99050.77
2023-04-14T15:11:14.184Z,99048.55
2023-04-14T15:13:27.527Z,99038.36
2023-04-14T15:15:40.050Z,99028.14
2023-04-14T15:17:52.798Z,99033.79
2023-04-14T15:20:06.348Z,99051.28
2023-04-14T15:22:19.021Z,99059.52
2023-04-14T15:24:31.623Z,99059.64
2023-04-14T15:26:44.237Z,99050.65
2023-04-14T15:28:56.730Z,99043.67
2023-04-14T15:31:09.474Z,99036.41
2023-04-14T15:33:22.046Z,99033.30
2023-04-14T15:35:38.855Z,99033.23
2023-04-14T15:37:52.401Z,99029.72
2023-04-14T15:40:05.557Z,99031.80
2023-04-14T15:42:18.112Z,99031.75
2023-04-14T15:44:30.848Z,99031.50
2023-04-14T15:46:43.505Z,99028.30
2023-04-14T15:48:56.086Z,99032.05
2023-04-14T15:51:08.606Z,99035.98
2023-04-14T15:53:22.625Z,99037.52
2023-04-14T15:55:35.146Z,99038.48
2023-04-14T15:57:48.475Z,99042.54
2023-04-14T16:00:04.569Z,99048.64
2023-04-14T16:02:17.245Z,99050.77
2023-04-14T16:04:30.289Z,99049.77
2023-04-14T16:06:44.330Z,99048.85
2023-04-14T16:08:57.824Z,99047.87
2023-04-14T16:11:15.131Z,99049.23
2023-04-14T16:13:27.913Z,99046.44
2023-04-14T16:15:40.407Z,99046.20
2023-04-14T16:17:53.034Z,99045.58
2023-04-14T16:20:05.946Z,99043.59
2023-04-14T16:22:18.561Z,99044.70
2023-04-14T16:24:31.256Z,99047.34
2023-04-14T16:26:44.488Z,99050.18
2023-04-14T16:28:57.045Z,99050.09
2023-04-14T16:31:10.064Z,99047.36
2023-04-14T16:33:22.974Z,99042.16
2023-04-14T16:35:35.512Z,99043.76
2023-04-14T16:37:48.021Z,99048.89
2023-04-14T16:40:00.597Z,99056.52
2023-04-14T16:42:13.835Z,99052.05
2023-04-14T16:44:26.358Z,99054.66
2023-04-14T16:46:38.921Z,99054.19
2023-04-14T16:48:51.463Z,99056.83
2023-04-14T16:51:11.220Z,99058.14
2023-04-14T16:53:23.826Z,99063.30
2023-04-14T16:55:36.393Z,99064.06
2023-04-14T16:57:48.912Z,99076.07
2023-04-14T17:00:01.753Z,99083.66
2023-04-14T17:02:14.483Z,99084.27
2023-04-14T17:04:27.937Z,99083.64
2023-04-14T17:06:40.938Z,99077.09
2023-04-14T17:08:53.498Z,99078.44
2023-04-14T17:11:06.118Z,99077.62
2023-04-14T17:13:18.831Z,99078.38
2023-04-14T17:15:31.361Z,99081.83
2023-04-14T17:17:46.211Z,99081.34
2023-04-14T17:19:59.368Z,99080.50
2023-04-14T17:22:12.471Z,99083.48
2023-04-14T17:24:25.256Z,99084.94
2023-04-14T17:26:38.600Z,99078.71
2023-04-14T17:28:51.601Z,99078.78
2023-04-14T17:31:11.402Z,99075.09
2023-04-14T17:33:27.158Z,99070.84
2023-04-14T17:35:39.770Z,99062.96
2023-04-14T17:37:52.785Z,99066.05
2023-04-14T17:40:07.878Z,99067.02
2023-04-14T17:42:21.483Z,99071.20
2023-04-14T17:44:34.550Z,99080.33
2023-04-14T17:46:47.083Z,99076.58
2023-04-14T17:49:01.560Z,99082.27
2023-04-14T17:51:14.364Z,99099.81
2023-04-14T17:53:27.879Z,99106.64
2023-04-14T17:55:40.590Z,99109.41
2023-04-14T17:57:53.689Z,99099.53
2023-04-14T18:00:12.955Z,99092.11
2023-04-14T18:02:25.710Z,99082.40
2023-04-14T18:04:38.615Z,99071.45
2023-04-14T18:06:51.202Z,99064.10
2023-04-14T18:09:06.658Z,99064.25
2023-04-14T18:11:20.473Z,99065.38
2023-04-14T18:13:33.565Z,99065.44
2023-04-14T18:15:47.904Z,99064.42
2023-04-14T18:18:00.574Z,99062.95
2023-04-14T18:20:14.478Z,99062.33
2023-04-14T18:22:27.428Z,99058.86
2023-04-14T18:26:55.339Z,99055.36
2023-04-14T18:29:08.464Z,99055.02
2023-04-14T18:31:21.030Z,99054.94
2023-04-14T18:33:33.547Z,99051.30
2023-04-14T18:35:58.150Z,99054.39
2023-04-14T18:38:11.514Z,99059.11
2023-04-14T18:40:24.854Z,99062.61
2023-04-14T18:42:39.007Z,99069.79
2023-04-14T18:44:53.071Z,99081.70
2023-04-14T18:47:05.613Z,99088.04
2023-04-14T18:49:19.069Z,99096.46
2023-04-14T18:51:32.494Z,99107.14
2023-04-14T18:53:46.321Z,99118.11
2023-04-14T18:55:58.867Z,99126.16
2023-04-14T18:58:12.829Z,99130.07
2023-04-14T19:00:29.513Z,99134.79
2023-04-14T19:02:42.651Z,99140.45
2023-04-14T19:04:56.078Z,99127.84
2023-04-14T19:07:08.662Z,99114.55
2023-04-14T19:09:21.277Z,99112.15
2023-04-14T19:11:35.939Z,99118.58
2023-04-14T19:13:48.590Z,99126.20
2023-04-14T19:16:14.612Z,99119.52
2023-04-14T19:18:27.927Z,99117.95
2023-04-14T19:20:40.833Z,99120.36
2023-04-14T19:22:53.826Z,99117.70
2023-04-14T19:25:06.930Z,99117.09
2023-04-14T19:27:19.822Z,99116.88
2023-04-14T19:29:32.436Z,99117.19
2023-04-14T19:31:45.031Z,99110.75
2023-04-14T19:33:58.598Z,99115.53
2023-04-14T19:36:15.641Z,99117.36
2023-04-14T19:38:28.618Z,99119.72
2023-04-14T19:40:48.441Z,99124.15
2023-04-14T19:43:01.034Z,99119.02
2023-04-14T19:45:13.628Z,99110.98
2023-04-14T19:47:26.211Z,99116.33
2023-04-14T19:49:38.803Z,99115.84
2023-04-14T19:51:51.403Z,99114.73
2023-04-14T19:54:05.464Z,99113.68
2023-04-14T19:56:18.509Z,99108.98
2023-04-14T19:58:32.878Z,99108.02
2023-04-14T20:00:45.929Z,99108.42
2023-04-14T20:02:59.116Z,99110.98
2023-04-14T20:05:12.645Z,99107.70
2023-04-14T20:07:25.671Z,99109.90
2023-04-14T20:09:44.604Z,99103.17
2023-04-14T20:11:57.149Z,99105.29
2023-04-14T20:14:10.692Z,99102.52
2023-04-14T20:16:24.445Z,99100.21
2023-04-14T20:18:38.350Z,99103.91
2023-04-14T20:20:51.161Z,99104.59
2023-04-14T20:23:05.713Z,99107.65
2023-04-14T20:25:18.354Z,99106.88
2023-04-14T20:27:31.672Z,99108.19
2023-04-14T20:29:44.501Z,99110.98
2023-04-14T20:31:57.190Z,99105.64
2023-04-14T20:34:10.325Z,99106.30
2023-04-14T20:36:23.424Z,99107.23
2023-04-14T20:38:37.776Z,99107.34
2023-04-14T20:40:50.494Z,99100.85
2023-04-14T20:43:04.169Z,99100.44
2023-04-14T20:45:16.706Z,99099.40
2023-04-14T20:47:29.350Z,99095.98
2023-04-14T20:49:42.753Z,99092.91
2023-04-14T20:51:58.267Z,99093.40
2023-04-14T20:54:10.849Z,99093.90
2023-04-14T20:56:27.156Z,99087.50
2023-04-14T20:58:39.796Z,99088.13
2023-04-14T21:00:52.380Z,99090.02
2023-04-14T21:03:05.003Z,99087.19
2023-04-14T21:05:18.417Z,99084.80
2023-04-14T21:07:31.273Z,99078.41
2023-04-14T21:09:44.555Z,99077.28
2023-04-14T21:12:15.991Z,99077.52
2023-04-14T21:15:29.091Z,99081.97
2023-04-14T21:17:01.623Z,99079.70
2023-04-14T21:19:14.290Z,99082.27
2023-04-14T21:21:26.959Z,99084.95
2023-04-14T21:23:39.549Z,99084.83
2023-04-14T21:25:52.533Z,99082.48
2023-04-14T21:28:05.436Z,99083.80
2023-04-14T21:30:17.962Z,99085.23
2023-04-14T21:32:30.536Z,99090.83
2023-04-14T21:34:43.035Z,99085.27
2023-04-14T21:36:57.381Z,99086.39
2023-04-14T21:39:09.979Z,99090.96
2023-04-14T21:41:22.803Z,99086.16
2023-04-14T21:43:36.711Z,99087.67
2023-04-14T21:45:49.922Z,99088.95
2023-04-14T21:48:02.944Z,99088.31
2023-04-14T21:50:17.214Z,99088.29
2023-04-14T21:52:29.814Z,99091.88
2023-04-14T21:54:44.216Z,99089.34
2023-04-14T21:56:56.936Z,99092.14
2023-04-14T21:59:09.498Z,99089.97
2023-04-14T22:01:22.166Z,99088.43
2023-04-14T22:03:37.332Z,99091.30
2023-04-14T22:05:53.165Z,99091.86
2023-04-14T22:08:05.690Z,99094.45
2023-04-14T22:10:18.249Z,99093.64
2023-04-14T22:12:32.339Z,99092.31
2023-04-14T22:14:45.402Z,99090.54
2023-04-14T22:16:58.021Z,99092.41
2023-04-14T22:19:10.699Z,99094.77
2023-04-14T22:21:23.270Z,99094.79
2023-04-14T22:23:36.205Z,99090.81
2023-04-14T22:25:48.758Z,99088.66
2023-04-14T22:28:01.622Z,99091.98
2023-04-14T22:30:14.172Z,99088.20
2023-04-14T22:32:27.173Z,99093.61
2023-04-14T22:34:39.758Z,99087.70
2023-04-14T22:36:52.440Z,99087.27
2023-04-14T22:39:05.035Z,99082.63
2023-04-14T22:41:18.340Z,99081.54
2023-04-14T22:43:31.024Z,99077.50
2023-04-14T22:45:43.550Z,99074.77
2023-04-14T22:47:56.264Z,99078.11
2023-04-14T22:50:09.234Z,99076.11
2023-04-14T22:52:21.760Z,99075.86
2023-04-14T22:54:34.298Z,99080.33
2023-04-14T22:56:48.061Z,99079.78
2023-04-14T22:59:01.165Z,99080.02
2023-04-14T23:01:22.043Z,99082.33
2023-04-14T23:03:35.627Z,99078.23
2023-04-14T23:05:48.751Z,99077.26
2023-04-14T23:08:01.480Z,99074.80
2023-04-14T23:10:14.340Z,99073.70
2023-04-14T23:12:26.872Z,99073.77
2023-04-14T23:14:39.429Z,99074.41
2023-04-14T23:16:52.031Z,99075.36
2023-04-14T23:19:04.766Z,99071.80
2023-04-14T23:21:22.276Z,99071.16
2023-04-14T23:23:35.096Z,99071.92
2023-04-14T23:25:47.700Z,99068.60
2023-04-14T23:28:00.297Z,99066.84
2023-04-14T23:30:13.053Z,99064.80
2023-04-14T23:32:25.684Z,99063.27
2023-04-14T23:34:38.592Z,99057.58
2023-04-14T23:36:51.133Z,99057.98
2023-04-14T23:39:03.962Z,99054.80
2023-04-14T23:41:16.823Z,99054.27
2023-04-14T23:43:29.538Z,99055.55
2023-04-14T23:45:42.234Z,99054.50
2023-04-14T23:47:55.419Z,99055.03
2023-04-14T23:50:08.519Z,99055.91
2023-04-14T23:52:21.767Z,99055.70
2023-04-14T23:54:34.639Z,99057.83
2023-04-14T23:56:47.264Z,99057.80
2023-04-14T23:59:00.201Z,99056.33
